Time;durP1;ratioP1;P1;durP2;ratioP2;P2;SDS_P1;SDS_P2;PMS_P1;PMS_P2;Temp;Humidity;BMP_temperature;BMP_pressure;BME280_temperature;BME280_humidity;BME280_pressure;Samples;Min_cycle;Max_cycle;Signal;HPM_P1;HPM_P2
2021/04/13 00:02:30;;;;;;;16.00;15.20;;;24.20;91.20;;;;;;6070502;23;20453;-47
2021/04/13 00:05:00;;;;;;;17.13;16.00;;;24.20;91.10;;;;;;6074170;23;20450;-47
2021/04/13 00:07:29;;;;;;;16.90;15.60;;;24.20;91.10;;;;;;6076235;23;20456;-46
2021/04/13 00:09:59;;;;;;;16.27;15.37;;;24.20;91.10;;;;;;6074312;23;20451;-46
2021/04/13 00:12:29;;;;;;;15.90;14.93;;;24.20;91.10;;;;;;6072357;23;20855;-47
2021/04/13 00:15:01;;;;;;;16.47;15.70;;;24.20;91.10;;;;;;6074043;23;21010;-47
2021/04/13 00:17:30;;;;;;;16.47;15.50;;;24.20;91.10;;;;;;6075564;23;20454;-48
2021/04/13 00:20:05;;;;;;;16.03;15.20;;;24.20;91.10;;;;;;6074127;23;20552;-47
2021/04/13 00:22:33;;;;;;;15.97;15.07;;;24.20;91.10;;;;;;6074778;23;20449;-47
2021/04/13 00:25:01;;;;;;;15.30;14.57;;;24.20;91.10;;;;;;6072885;23;20461;-46
2021/04/13 00:27:30;;;;;;;16.13;15.23;;;24.20;91.00;;;;;;6073515;23;20469;-46
2021/04/13 00:30:12;;;;;;;17.70;16.27;;;24.20;91.10;;;;;;6075034;23;20450;-46
2021/04/13 00:32:45;;;;;;;15.87;15.07;;;24.20;91.10;;;;;;6074734;23;20572;-46
2021/04/13 00:35:18;;;;;;;16.30;15.40;;;24.20;91.00;;;;;;6074135;23;20744;-46
2021/04/13 00:37:45;;;;;;;15.77;14.87;;;24.20;91.00;;;;;;6072322;23;20738;-45
2021/04/13 00:40:22;;;;;;;15.70;14.90;;;24.20;91.00;;;;;;6072143;23;20473;-46
2021/04/13 00:42:51;;;;;;;16.40;15.40;;;24.20;91.00;;;;;;6072735;23;20457;-46
2021/04/13 00:45:21;;;;;;;15.73;14.83;;;24.20;91.00;;;;;;6049438;23;20793;-46
2021/04/13 00:47:49;;;;;;;15.53;14.63;;;24.20;91.00;;;;;;6073467;23;20490;-46
2021/04/13 00:50:23;;;;;;;15.80;15.00;;;24.20;91.00;;;;;;6073550;23;20848;-46
2021/04/13 00:52:54;;;;;;;15.47;14.53;;;24.20;91.00;;;;;;6072743;23;20441;-46
2021/04/13 00:55:26;;;;;;;15.30;14.50;;;24.20;91.00;;;;;;6074759;23;20444;-47
2021/04/13 00:58:01;;;;;;;17.20;16.17;;;24.20;91.00;;;;;;6073893;23;20452;-46
2021/04/13 01:00:31;;;;;;;16.17;15.13;;;24.20;91.00;;;;;;6072870;23;20453;-46
2021/04/13 01:03:00;;;;;;;16.60;15.80;;;24.20;91.00;;;;;;6073978;23;20687;-46
2021/04/13 01:05:36;;;;;;;16.80;15.90;;;24.20;91.00;;;;;;6074445;23;20490;-46
2021/04/13 01:08:19;;;;;;;16.70;15.40;;;24.20;91.00;;;;;;6076166;23;20467;-46
2021/04/13 01:10:47;;;;;;;15.67;14.83;;;24.20;90.90;;;;;;6076164;23;20464;-48
2021/04/13 01:13:17;;;;;;;15.67;14.97;;;24.20;90.90;;;;;;6074225;23;20488;-47
2021/04/13 01:15:47;;;;;;;16.00;15.00;;;24.20;90.90;;;;;;6073121;23;20730;-47
2021/04/13 01:18:20;;;;;;;16.20;15.40;;;24.20;90.90;;;;;;6074067;23;20450;-45
2021/04/13 01:20:54;;;;;;;16.53;15.63;;;24.20;90.90;;;;;;6073172;23;20548;-46
2021/04/13 01:23:23;;;;;;;16.23;15.43;;;24.20;90.90;;;;;;6075208;23;20473;-46
2021/04/13 01:25:57;;;;;;;15.70;14.60;;;24.20;90.80;;;;;;6074628;23;20473;-46
2021/04/13 01:28:28;;;;;;;16.43;15.07;;;24.20;90.90;;;;;;6074096;23;20445;-46
2021/04/13 01:31:05;;;;;;;15.50;14.63;;;24.20;90.90;;;;;;6072842;23;20469;-45
2021/04/13 01:33:38;;;;;;;15.77;14.97;;;24.20;90.90;;;;;;6073908;23;20521;-46
2021/04/13 01:36:17;;;;;;;15.97;15.23;;;24.20;90.90;;;;;;6072488;23;20821;-45
2021/04/13 01:38:59;;;;;;;15.70;14.90;;;24.20;90.90;;;;;;6073707;23;20453;-46
2021/04/13 01:41:45;;;;;;;16.13;15.33;;;24.20;90.90;;;;;;6074460;23;20461;-46
2021/04/13 01:44:14;;;;;;;15.67;14.87;;;24.30;90.90;;;;;;6075727;23;20447;-46
2021/04/13 01:46:42;;;;;;;17.20;16.03;;;24.20;90.80;;;;;;6073205;23;20918;-46
2021/04/13 01:49:09;;;;;;;16.10;15.23;;;24.20;90.80;;;;;;6073631;23;20445;-47
2021/04/13 01:51:36;;;;;;;16.33;15.43;;;24.30;90.90;;;;;;6074822;23;20453;-46
2021/04/13 01:54:09;;;;;;;16.47;15.57;;;24.30;90.90;;;;;;6074821;23;20443;-47
2021/04/13 01:56:48;;;;;;;15.63;14.57;;;24.20;90.80;;;;;;6076212;23;20479;-46
2021/04/13 01:59:22;;;;;;;16.10;15.20;;;24.20;90.80;;;;;;6073170;23;20940;-46
2021/04/13 02:01:55;;;;;;;16.33;15.33;;;24.20;90.80;;;;;;6074175;23;20456;-47
2021/04/13 02:04:26;;;;;;;15.60;14.60;;;24.30;90.90;;;;;;6073565;23;20540;-47
2021/04/13 02:07:02;;;;;;;15.63;14.73;;;24.30;90.80;;;;;;6074120;23;20474;-45
2021/04/13 02:09:35;;;;;;;15.37;14.67;;;24.30;90.80;;;;;;6070923;23;20515;-48
2021/04/13 02:12:08;;;;;;;16.47;15.47;;;24.30;90.80;;;;;;6073249;23;20781;-47
2021/04/13 02:14:40;;;;;;;16.00;15.10;;;24.20;90.80;;;;;;6074086;23;20464;-46
2021/04/13 02:17:11;;;;;;;15.77;14.97;;;24.20;90.80;;;;;;6073948;23;20450;-46
2021/04/13 02:19:37;;;;;;;15.63;14.93;;;24.20;90.80;;;;;;6073617;23;20540;-46
2021/04/13 02:22:08;;;;;;;16.40;15.50;;;24.20;90.70;;;;;;6073126;23;20561;-46
2021/04/13 02:24:37;;;;;;;15.53;14.67;;;24.30;90.80;;;;;;6073408;23;20465;-47
2021/04/13 02:27:09;;;;;;;15.57;14.77;;;24.20;90.70;;;;;;6076749;23;20644;-46
2021/04/13 02:29:40;;;;;;;15.53;14.57;;;24.20;90.70;;;;;;6073937;23;20731;-46
2021/04/13 02:32:14;;;;;;;17.23;16.10;;;24.30;90.70;;;;;;6072960;23;20676;-46
2021/04/13 02:34:44;;;;;;;15.50;14.70;;;24.30;90.80;;;;;;6073717;23;20449;-47
2021/04/13 02:37:16;;;;;;;16.10;15.40;;;24.30;90.70;;;;;;6073309;23;20450;-47
2021/04/13 02:40:09;;;;;;;15.27;14.50;;;24.30;90.80;;;;;;6071285;23;20453;-47
2021/04/13 02:42:41;;;;;;;16.60;15.70;;;24.30;90.70;;;;;;6072820;23;20475;-46
2021/04/13 02:45:11;;;;;;;15.27;14.57;;;24.30;90.70;;;;;;6073102;23;21151;-46
2021/04/13 02:47:44;;;;;;;15.90;15.20;;;24.30;90.70;;;;;;6072992;23;21013;-48
2021/04/13 02:50:15;;;;;;;15.60;14.80;;;24.30;90.70;;;;;;6073176;23;20449;-47
2021/04/13 02:52:44;;;;;;;15.97;15.17;;;24.30;90.70;;;;;;6076467;23;20672;-47
2021/04/13 02:55:21;;;;;;;15.73;15.03;;;24.30;90.70;;;;;;6076061;23;20475;-46
2021/04/13 02:57:48;;;;;;;15.60;14.90;;;24.30;90.70;;;;;;6077305;23;20899;-46
2021/04/13 03:00:22;;;;;;;15.63;14.80;;;24.30;90.70;;;;;;6074516;23;20823;-47
2021/04/13 03:02:55;;;;;;;15.80;15.03;;;24.30;90.70;;;;;;6074240;23;20445;-46
2021/04/13 03:05:25;;;;;;;15.60;14.80;;;24.30;90.70;;;;;;6076060;23;20456;-46
2021/04/13 03:07:52;;;;;;;15.93;15.07;;;24.30;90.70;;;;;;6074790;23;20863;-47
2021/04/13 03:10:25;;;;;;;16.03;15.13;;;24.30;90.60;;;;;;6073591;23;20460;-46
2021/04/13 03:12:53;;;;;;;15.70;14.90;;;24.30;90.70;;;;;;6072884;23;20449;-46
2021/04/13 03:15:25;;;;;;;15.80;15.10;;;24.30;90.70;;;;;;6074184;23;20563;-45
2021/04/13 03:17:54;;;;;;;15.57;14.80;;;24.30;91.00;;;;;;6073403;23;20528;-46
2021/04/13 03:20:26;;;;;;;15.90;15.03;;;24.30;90.60;;;;;;6072745;23;20465;-46
2021/04/13 03:22:58;;;;;;;15.70;14.90;;;24.30;90.60;;;;;;6074877;23;20442;-45
2021/04/13 03:25:30;;;;;;;16.10;15.40;;;24.30;90.60;;;;;;6075553;23;20851;-46
2021/04/13 03:27:58;;;;;;;16.17;15.37;;;24.30;90.60;;;;;;6075929;23;20563;-46
2021/04/13 03:30:27;;;;;;;15.73;15.03;;;24.30;90.60;;;;;;6075466;23;20450;-45
2021/04/13 03:32:59;;;;;;;15.43;14.73;;;24.30;90.60;;;;;;6075592;23;20503;-47
2021/04/13 03:35:28;;;;;;;17.60;16.70;;;24.30;90.60;;;;;;6074240;23;20467;-46
2021/04/13 03:37:57;;;;;;;16.30;15.50;;;24.30;90.60;;;;;;6074109;23;20462;-46
2021/04/13 03:40:26;;;;;;;16.60;15.80;;;24.40;90.60;;;;;;6073015;23;20462;-46
2021/04/13 03:42:57;;;;;;;16.23;15.50;;;24.40;90.60;;;;;;6073839;23;20468;-45
2021/04/13 03:45:25;;;;;;;16.40;15.70;;;24.40;90.50;;;;;;6074096;23;20456;-46
2021/04/13 03:47:52;;;;;;;15.63;15.00;;;24.40;90.50;;;;;;6074680;23;20454;-46
2021/04/13 03:50:23;;;;;;;15.80;15.00;;;24.50;90.50;;;;;;6072705;23;20509;-46
2021/04/13 03:53:01;;;;;;;16.50;15.60;;;24.40;90.50;;;;;;6071565;23;20456;-46
2021/04/13 03:55:28;;;;;;;15.90;15.20;;;24.50;90.50;;;;;;6070142;23;20454;-46
2021/04/13 03:57:55;;;;;;;17.10;16.20;;;24.50;90.50;;;;;;6071002;23;20446;-46
2021/04/13 04:00:24;;;;;;;15.70;15.00;;;24.50;90.50;;;;;;6072691;23;20452;-46
2021/04/13 04:02:51;;;;;;;16.10;15.30;;;24.50;90.40;;;;;;6072886;23;20452;-46
2021/04/13 04:05:24;;;;;;;17.00;16.10;;;24.50;90.40;;;;;;6070151;23;20559;-46
2021/04/13 04:07:55;;;;;;;17.60;16.80;;;24.50;90.40;;;;;;6071524;23;20456;-47
2021/04/13 04:10:35;;;;;;;16.53;15.73;;;24.50;90.40;;;;;;6072078;23;20509;-47
2021/04/13 04:13:04;;;;;;;16.93;16.13;;;24.50;90.40;;;;;;6072369;23;20465;-46
2021/04/13 04:15:38;;;;;;;16.43;15.63;;;24.50;90.40;;;;;;6072752;23;20468;-46
2021/04/13 04:18:17;;;;;;;17.43;16.47;;;24.60;90.40;;;;;;6074270;23;20462;-46
2021/04/13 04:20:45;;;;;;;16.97;16.07;;;24.60;90.40;;;;;;6072863;23;20444;-45
2021/04/13 04:23:16;;;;;;;17.20;16.50;;;24.60;90.40;;;;;;6067306;23;20457;-45
2021/04/13 04:25:45;;;;;;;17.20;16.50;;;24.60;90.30;;;;;;6071929;23;20805;-46
2021/04/13 04:28:16;;;;;;;17.47;16.47;;;24.60;90.30;;;;;;6070685;23;20449;-45
2021/04/13 04:30:43;;;;;;;16.80;16.10;;;24.70;90.30;;;;;;6069194;23;20444;-46
2021/04/13 04:33:34;;;;;;;18.33;17.30;;;24.60;90.20;;;;;;6067824;23;20469;-45
2021/04/13 04:36:01;;;;;;;17.27;16.47;;;24.70;90.30;;;;;;6070834;23;20460;-45
2021/04/13 04:38:29;;;;;;;16.63;15.93;;;24.70;90.20;;;;;;6071370;23;20450;-45
2021/04/13 04:41:00;;;;;;;17.37;16.50;;;24.70;90.20;;;;;;6067519;23;20458;-46
2021/04/13 04:43:43;;;;;;;16.70;15.80;;;24.70;90.20;;;;;;6070723;23;20467;-45
2021/04/13 04:46:10;;;;;;;16.90;16.10;;;24.70;90.20;;;;;;6068786;23;20881;-45
2021/04/13 04:48:39;;;;;;;16.63;15.83;;;24.80;90.20;;;;;;6068631;23;20458;-45
2021/04/13 04:51:08;;;;;;;16.00;15.30;;;24.80;90.20;;;;;;6066056;23;20805;-45
2021/04/13 04:53:36;;;;;;;16.43;15.67;;;24.80;90.20;;;;;;6065640;23;20837;-45
2021/04/13 04:56:05;;;;;;;17.00;15.97;;;24.80;90.10;;;;;;6063017;23;20463;-45
2021/04/13 04:58:31;;;;;;;17.80;16.30;;;24.80;90.10;;;;;;6064562;23;20635;-45
2021/04/13 05:00:58;;;;;;;16.60;15.90;;;24.80;90.00;;;;;;6062626;23;21326;-45
2021/04/13 05:03:26;;;;;;;17.60;16.70;;;24.80;90.00;;;;;;6064703;23;20884;-45
2021/04/13 05:05:55;;;;;;;16.77;16.00;;;24.80;90.00;;;;;;6064423;23;20460;-45
2021/04/13 05:08:22;;;;;;;17.10;16.30;;;24.90;90.10;;;;;;6063956;23;20469;-45
2021/04/13 05:10:50;;;;;;;16.60;15.90;;;24.80;90.00;;;;;;6064619;23;20496;-45
2021/04/13 05:13:17;;;;;;;17.40;16.60;;;24.90;90.00;;;;;;6061658;23;20535;-45
2021/04/13 05:15:43;;;;;;;16.80;16.10;;;24.80;90.00;;;;;;6060733;23;20468;-45
2021/04/13 05:18:10;;;;;;;17.17;16.23;;;24.90;90.00;;;;;;6059987;23;20442;-45
2021/04/13 05:20:37;;;;;;;16.60;15.90;;;24.90;90.00;;;;;;6061024;23;20458;-45
2021/04/13 05:23:04;;;;;;;16.70;15.83;;;24.90;90.00;;;;;;6060682;23;20773;-44
2021/04/13 05:25:31;;;;;;;16.73;16.03;;;24.90;89.90;;;;;;6059363;23;20455;-45
2021/04/13 05:27:57;;;;;;;16.10;15.40;;;24.90;89.80;;;;;;6059528;23;20882;-45
2021/04/13 05:30:25;;;;;;;15.83;15.13;;;24.90;89.80;;;;;;6057041;23;20548;-45
2021/04/13 05:32:52;;;;;;;17.13;16.13;;;25.00;89.90;;;;;;6054961;23;20485;-44
2021/04/13 05:35:20;;;;;;;16.73;16.03;;;25.00;89.80;;;;;;6049754;23;20702;-45
2021/04/13 05:37:47;;;;;;;16.73;15.93;;;25.00;89.70;;;;;;6053550;23;20571;-44
2021/04/13 05:40:19;;;;;;;16.70;15.90;;;25.00;89.60;;;;;;6053237;23;20723;-45
2021/04/13 05:42:45;;;;;;;15.50;14.90;;;25.00;89.50;;;;;;6057191;23;20472;-45
2021/04/13 05:45:15;;;;;;;16.70;16.00;;;25.00;89.40;;;;;;6058943;23;20683;-45
2021/04/13 05:47:42;;;;;;;16.97;16.27;;;25.00;89.40;;;;;;6057975;23;21003;-44
2021/04/13 05:50:12;;;;;;;16.37;15.63;;;25.00;89.50;;;;;;6056448;23;20522;-45
2021/04/13 05:52:38;;;;;;;16.50;15.80;;;25.00;89.40;;;;;;6057653;23;20465;-45
2021/04/13 05:55:06;;;;;;;17.27;16.07;;;25.00;89.40;;;;;;6055448;23;20444;-45
2021/04/13 05:57:33;;;;;;;16.50;15.60;;;25.00;89.40;;;;;;6054469;23;20448;-44
2021/04/13 06:00:02;;;;;;;16.63;15.83;;;25.00;89.40;;;;;;6052101;23;20459;-45
2021/04/13 06:02:34;;;;;;;16.67;15.97;;;25.00;89.40;;;;;;6050350;23;20451;-44
2021/04/13 06:05:02;;;;;;;16.03;15.33;;;25.00;89.40;;;;;;6045063;23;20976;-44
2021/04/13 06:07:29;;;;;;;16.10;15.40;;;25.00;90.00;;;;;;6049898;23;20462;-45
2021/04/13 06:09:56;;;;;;;16.53;15.80;;;25.00;89.40;;;;;;6048734;23;20448;-44
2021/04/13 06:12:23;;;;;;;17.20;16.30;;;25.00;89.50;;;;;;6050186;23;20836;-44
2021/04/13 06:14:51;;;;;;;16.47;15.40;;;25.00;89.60;;;;;;6048619;23;20592;-44
2021/04/13 06:17:18;;;;;;;17.03;15.83;;;25.00;89.70;;;;;;6047687;23;20459;-44
2021/04/13 06:19:46;;;;;;;17.13;16.30;;;25.00;89.80;;;;;;6045768;23;20461;-44
2021/04/13 06:22:14;;;;;;;17.87;16.17;;;25.00;89.80;;;;;;6046592;23;20948;-44
2021/04/13 06:24:45;;;;;;;17.17;15.87;;;25.00;89.90;;;;;;6043444;23;20625;-44
2021/04/13 06:27:12;;;;;;;17.50;16.30;;;25.00;90.00;;;;;;6044561;23;20443;-44
2021/04/13 06:29:39;;;;;;;16.87;15.93;;;24.90;89.80;;;;;;6046628;23;20474;-44
2021/04/13 06:32:09;;;;;;;17.33;16.43;;;25.00;90.00;;;;;;6045438;23;20462;-44
2021/04/13 06:34:36;;;;;;;17.10;16.07;;;24.90;89.90;;;;;;6047460;23;20458;-44
2021/04/13 06:37:06;;;;;;;16.00;15.20;;;25.00;90.00;;;;;;6044868;23;20875;-44
2021/04/13 06:39:37;;;;;;;17.60;16.20;;;24.90;90.00;;;;;;6049242;23;20466;-44
2021/04/13 06:42:13;;;;;;;16.70;15.90;;;24.90;90.00;;;;;;6046741;23;21217;-44
2021/04/13 06:45:04;;;;;;;17.10;15.83;;;24.90;90.00;;;;;;6046832;23;20445;-44
2021/04/13 06:47:51;;;;;;;17.40;16.23;;;24.90;90.10;;;;;;6045943;23;20914;-43
2021/04/13 06:50:33;;;;;;;16.93;16.03;;;24.90;90.10;;;;;;6043297;23;20495;-44
2021/04/13 06:53:18;;;;;;;18.90;17.20;;;24.90;90.20;;;;;;6045063;23;20476;-44
2021/04/13 06:56:07;;;;;;;17.80;16.60;;;24.90;90.20;;;;;;6044409;23;20452;-45
2021/04/13 06:58:57;;;;;;;17.40;15.90;;;24.90;90.40;;;;;;6045977;23;20460;-44
2021/04/13 07:01:28;;;;;;;17.97;16.50;;;24.90;90.60;;;;;;6042867;23;21002;-44
2021/04/13 07:04:03;;;;;;;16.80;15.63;;;24.80;90.70;;;;;;6045562;23;20445;-44
2021/04/13 07:06:42;;;;;;;17.37;16.13;;;24.80;90.90;;;;;;6048337;23;20470;-44
2021/04/13 07:09:17;;;;;;;17.53;16.40;;;24.70;91.00;;;;;;6046203;23;20451;-44
2021/04/13 07:11:50;;;;;;;17.93;16.13;;;24.70;91.10;;;;;;6048040;23;20673;-43
2021/04/13 07:14:24;;;;;;;17.10;16.00;;;24.70;91.20;;;;;;6042579;23;20436;-44
2021/04/13 07:16:56;;;;;;;17.83;16.43;;;24.70;91.20;;;;;;6042953;23;20718;-43
2021/04/13 07:19:30;;;;;;;18.07;16.20;;;24.70;91.30;;;;;;6046606;23;20449;-43
2021/04/13 07:22:03;;;;;;;17.00;15.63;;;24.70;91.40;;;;;;6042021;23;20457;-43
2021/04/13 07:24:39;;;;;;;18.03;16.67;;;24.70;91.40;;;;;;6045576;23;20462;-44
2021/04/13 07:27:10;;;;;;;18.40;16.90;;;24.70;91.50;;;;;;6043673;23;20450;-44
2021/04/13 07:29:44;;;;;;;18.93;17.10;;;24.70;91.50;;;;;;6042968;23;20478;-44
2021/04/13 07:32:15;;;;;;;17.57;16.27;;;24.70;91.50;;;;;;6038132;23;21006;-43
2021/04/13 07:34:45;;;;;;;18.27;16.70;;;24.70;91.60;;;;;;6039412;23;20464;-44
2021/04/13 07:37:17;;;;;;;18.47;17.13;;;24.70;91.60;;;;;;6039455;23;20478;-43
2021/04/13 07:39:47;;;;;;;18.43;17.10;;;24.70;91.60;;;;;;6043218;23;20467;-43
2021/04/13 07:42:19;;;;;;;16.67;15.30;;;24.70;91.70;;;;;;6044714;23;20467;-43
2021/04/13 07:45:09;;;;;;;17.53;16.17;;;24.70;91.70;;;;;;6043408;23;20456;-43
2021/04/13 07:48:09;;;;;;;19.03;17.13;;;24.70;91.70;;;;;;6048230;23;20755;-43
2021/04/13 07:50:50;;;;;;;17.67;16.20;;;24.60;91.70;;;;;;6047211;23;20451;-44
2021/04/13 07:53:24;;;;;;;17.63;16.20;;;24.60;91.70;;;;;;6045739;23;20456;-44
2021/04/13 07:55:56;;;;;;;18.07;16.67;;;24.60;91.70;;;;;;6046257;23;20445;-43
2021/04/13 07:58:37;;;;;;;17.40;16.00;;;24.60;91.80;;;;;;6045498;23;20443;-44
2021/04/13 08:01:07;;;;;;;17.43;16.30;;;24.60;91.80;;;;;;6045555;23;20450;-43
2021/04/13 08:03:36;;;;;;;18.53;17.03;;;24.60;91.80;;;;;;6045168;23;20469;-43
2021/04/13 08:06:26;;;;;;;18.20;16.50;;;24.60;91.80;;;;;;6039439;23;20524;-43
2021/04/13 08:09:14;;;;;;;17.87;16.17;;;24.60;91.80;;;;;;6035604;23;20466;-43
2021/04/13 08:12:13;;;;;;;17.97;16.67;;;24.60;91.80;;;;;;6043766;23;20469;-43
2021/04/13 08:14:43;;;;;;;16.73;15.73;;;24.50;91.80;;;;;;6041564;23;20451;-44
2021/04/13 08:17:15;;;;;;;17.33;16.10;;;24.60;91.80;;;;;;6038735;23;20480;-43
2021/04/13 08:19:43;;;;;;;17.37;16.10;;;24.60;91.90;;;;;;6041527;23;20470;-43
2021/04/13 08:22:15;;;;;;;17.13;16.00;;;24.60;91.90;;;;;;6037722;23;20450;-43
2021/04/13 08:24:45;;;;;;;17.20;16.10;;;24.50;91.90;;;;;;6040219;23;20456;-43
2021/04/13 08:27:44;;;;;;;17.63;16.33;;;24.50;91.90;;;;;;6041994;23;20450;-43
2021/04/13 08:30:42;;;;;;;17.30;16.17;;;24.50;91.90;;;;;;6037298;23;20467;-43
2021/04/13 08:33:20;;;;;;;17.30;16.20;;;24.50;92.00;;;;;;6044809;23;20458;-42
2021/04/13 08:36:09;;;;;;;18.47;16.97;;;24.50;92.10;;;;;;6043190;23;20468;-44
2021/04/13 08:38:49;;;;;;;17.60;16.40;;;24.50;92.10;;;;;;6046110;23;21283;-44
2021/04/13 08:41:43;;;;;;;17.50;16.20;;;24.50;92.10;;;;;;6046322;23;21226;-44
2021/04/13 08:44:21;;;;;;;18.77;16.87;;;24.40;92.00;;;;;;6037261;23;20574;-43
2021/04/13 08:46:53;;;;;;;16.77;15.77;;;24.40;91.90;;;;;;6043330;23;20452;-43
2021/04/13 08:49:40;;;;;;;17.83;16.63;;;24.50;91.90;;;;;;6046006;23;20473;-43
2021/04/13 08:52:16;;;;;;;17.13;16.00;;;24.50;91.90;;;;;;6043410;23;20486;-42
2021/04/13 08:54:46;;;;;;;17.53;16.33;;;24.40;91.90;;;;;;6043301;23;20538;-43
2021/04/13 08:57:31;;;;;;;17.17;16.07;;;24.40;91.90;;;;;;6041802;23;20559;-43
2021/04/13 09:00:39;;;;;;;16.10;15.20;;;24.40;91.90;;;;;;6042725;23;21265;-43
2021/04/13 09:03:08;;;;;;;17.07;16.10;;;24.40;91.90;;;;;;6042765;23;20467;-43
2021/04/13 09:05:38;;;;;;;16.37;15.37;;;24.40;91.90;;;;;;6042011;23;20457;-43
2021/04/13 09:08:08;;;;;;;16.87;15.43;;;24.40;91.90;;;;;;6041765;23;20446;-43
2021/04/13 09:10:40;;;;;;;17.07;16.00;;;24.40;91.90;;;;;;6042321;23;20451;-43
2021/04/13 09:13:28;;;;;;;17.23;15.77;;;24.40;91.90;;;;;;6041835;23;21265;-43
2021/04/13 09:16:10;;;;;;;15.57;14.60;;;24.40;91.90;;;;;;6043839;23;20461;-43
2021/04/13 09:18:50;;;;;;;16.23;15.03;;;24.40;91.80;;;;;;6043646;23;20504;-43
2021/04/13 09:21:36;;;;;;;17.30;16.20;;;24.40;91.90;;;;;;6040711;23;20461;-44
2021/04/13 09:24:10;;;;;;;17.13;16.03;;;24.30;91.80;;;;;;6039398;23;20460;-43
2021/04/13 09:26:44;;;;;;;16.50;15.33;;;24.30;91.80;;;;;;6041713;23;20451;-44
2021/04/13 09:29:31;;;;;;;16.20;15.10;;;24.30;91.80;;;;;;6045624;23;20468;-43
2021/04/13 09:31:58;;;;;;;17.27;16.03;;;24.30;91.90;;;;;;6043996;23;20906;-43
2021/04/13 09:34:54;;;;;;;18.00;16.70;;;24.30;91.90;;;;;;6047157;23;20464;-42
2021/04/13 09:37:37;;;;;;;16.50;15.40;;;24.30;91.90;;;;;;6042231;23;20476;-42
2021/04/13 09:40:24;;;;;;;17.27;15.73;;;24.30;91.90;;;;;;6052266;23;20874;-41
2021/04/13 09:43:16;;;;;;;15.10;14.03;;;24.30;91.90;;;;;;6053528;23;20503;-42
2021/04/13 09:46:01;;;;;;;15.37;14.37;;;24.30;91.90;;;;;;6015876;23;21318;-42
2021/04/13 09:49:10;;;;;;;16.43;15.30;;;24.30;91.90;;;;;;6047618;23;20460;-42
2021/04/13 09:52:14;;;;;;;17.57;15.90;;;24.30;92.00;;;;;;6050062;23;20460;-42
2021/04/13 09:54:45;;;;;;;17.07;16.00;;;24.30;92.00;;;;;;6044976;23;20473;-42
2021/04/13 09:57:40;;;;;;;17.40;15.93;;;24.20;91.90;;;;;;6046368;23;20502;-42
2021/04/13 10:00:39;;;;;;;17.57;16.13;;;24.30;92.00;;;;;;6040274;23;20458;-42
2021/04/13 10:03:42;;;;;;;17.20;15.90;;;24.20;91.90;;;;;;6041399;23;20783;-42
2021/04/13 10:06:12;;;;;;;16.70;15.70;;;24.20;91.90;;;;;;5985803;23;20458;-42
2021/04/13 10:08:57;;;;;;;17.47;16.37;;;24.20;91.90;;;;;;6041219;23;20457;-42
2021/04/13 10:11:47;;;;;;;17.20;16.00;;;24.20;91.90;;;;;;6044985;23;20482;-43
2021/04/13 10:14:54;;;;;;;16.83;15.60;;;24.20;92.20;;;;;;6045146;23;20450;-42
2021/04/13 10:17:32;;;;;;;16.60;15.60;;;24.20;91.90;;;;;;6045497;23;20482;-43
2021/04/13 10:20:10;;;;;;;16.80;15.80;;;24.20;91.90;;;;;;6048900;23;20765;-42
2021/04/13 10:23:01;;;;;;;16.60;15.40;;;24.20;91.90;;;;;;6042707;23;20529;-43
2021/04/13 10:26:07;;;;;;;16.03;15.17;;;24.10;91.90;;;;;;6042419;23;20451;-42
2021/04/13 10:29:12;;;;;;;15.90;15.00;;;24.20;92.00;;;;;;6046127;23;20516;-42
2021/04/13 10:32:10;;;;;;;17.70;16.20;;;24.20;92.00;;;;;;6039784;23;20467;-42
2021/04/13 10:35:12;;;;;;;16.90;15.53;;;24.10;92.00;;;;;;6043044;23;20469;-43
2021/04/13 10:38:08;;;;;;;16.97;15.97;;;24.10;92.00;;;;;;6045407;23;20449;-43
2021/04/13 10:41:28;;;;;;;16.07;15.07;;;24.10;92.00;;;;;;6045135;23;20448;-43
2021/04/13 10:44:46;;;;;;;16.47;15.40;;;24.10;92.10;;;;;;6046963;23;20721;-43
2021/04/13 10:47:41;;;;;;;15.83;14.83;;;24.10;92.10;;;;;;5961179;23;20447;-42
2021/04/13 10:50:28;;;;;;;16.27;15.37;;;24.10;92.10;;;;;;5986990;23;20537;-42
2021/04/13 10:53:19;;;;;;;16.73;15.73;;;24.10;92.10;;;;;;5984167;23;20764;-42
2021/04/13 10:56:28;;;;;;;17.00;15.43;;;24.10;92.10;;;;;;5986076;23;20448;-43
2021/04/13 10:59:36;;;;;;;15.63;14.50;;;24.10;92.10;;;;;;5945109;23;20460;-43
2021/04/13 11:02:33;;;;;;;16.00;15.10;;;24.10;92.00;;;;;;5962216;23;20879;-42
2021/04/13 11:05:30;;;;;;;16.80;15.50;;;24.10;92.00;;;;;;6020720;23;20461;-43
2021/04/13 11:08:32;;;;;;;16.30;15.10;;;24.10;92.40;;;;;;6036148;23;20474;-43
2021/04/13 11:11:43;;;;;;;16.27;15.03;;;24.10;92.10;;;;;;6048672;23;20459;-44
2021/04/13 11:14:35;;;;;;;33.10;30.57;;;24.10;92.10;;;;;;6048378;23;20477;-43
2021/04/13 11:17:29;;;;;;;23.80;22.23;;;24.10;92.10;;;;;;6049961;23;20596;-43
2021/04/13 11:20:18;;;;;;;24.63;23.03;;;24.10;92.20;;;;;;6048978;23;20483;-44
2021/04/13 11:23:20;;;;;;;25.37;23.17;;;24.10;92.20;;;;;;6048521;23;20508;-43
2021/04/13 11:26:25;;;;;;;25.60;23.60;;;24.10;92.30;;;;;;6037440;23;20460;-43
2021/04/13 11:29:26;;;;;;;25.80;23.80;;;24.10;92.30;;;;;;6050700;23;20488;-43
2021/04/13 11:32:26;;;;;;;24.93;23.23;;;24.10;92.30;;;;;;6047376;23;20556;-42
2021/04/13 11:35:19;;;;;;;25.13;23.10;;;24.10;92.40;;;;;;6050027;23;21040;-42
2021/04/13 11:38:13;;;;;;;26.17;23.80;;;24.00;92.40;;;;;;6049551;23;20560;-43
2021/04/13 11:41:05;;;;;;;27.97;25.30;;;24.10;92.50;;;;;;6042083;23;20486;-43
2021/04/13 11:43:39;;;;;;;26.37;24.17;;;24.10;92.50;;;;;;6046025;23;20446;-43
2021/04/13 11:46:11;;;;;;;25.50;23.60;;;24.10;92.50;;;;;;6048176;23;20474;-42
2021/04/13 11:48:45;;;;;;;26.73;24.13;;;24.10;92.50;;;;;;6045336;23;20559;-43
2021/04/13 11:51:20;;;;;;;25.57;23.40;;;24.10;92.50;;;;;;6044517;23;20552;-43
2021/04/13 11:53:50;;;;;;;26.23;24.27;;;24.00;92.50;;;;;;6047477;23;20456;-42
2021/04/13 11:56:37;;;;;;;25.40;23.40;;;24.00;92.50;;;;;;6046536;23;20460;-43
2021/04/13 11:59:20;;;;;;;26.57;24.40;;;24.00;92.50;;;;;;6047227;23;20453;-42
2021/04/13 12:01:53;;;;;;;25.40;23.50;;;24.00;92.50;;;;;;6045035;23;20462;-43
2021/04/13 12:04:24;;;;;;;24.67;22.87;;;24.00;92.50;;;;;;6043517;23;20441;-43
2021/04/13 12:07:04;;;;;;;25.30;23.53;;;24.00;92.50;;;;;;6044838;23;20463;-43
2021/04/13 12:09:47;;;;;;;26.50;24.47;;;24.00;92.50;;;;;;6046023;23;20462;-42
2021/04/13 12:12:47;;;;;;;23.60;22.00;;;24.00;92.60;;;;;;6044634;23;20448;-42
2021/04/13 12:15:47;;;;;;;25.43;23.70;;;24.00;92.60;;;;;;6016152;23;20469;-44
2021/04/13 12:18:59;;;;;;;25.03;22.93;;;24.00;92.60;;;;;;6042381;23;20490;-43
2021/04/13 12:21:59;;;;;;;22.03;20.37;;;24.00;92.70;;;;;;6041957;23;20443;-43
2021/04/13 12:24:50;;;;;;;23.00;21.33;;;24.00;92.70;;;;;;6044162;23;20497;-43
2021/04/13 12:28:01;;;;;;;23.50;21.70;;;24.00;92.70;;;;;;6048677;23;20462;-43
2021/04/13 12:30:55;;;;;;;23.03;21.23;;;24.00;92.70;;;;;;5987577;23;20538;-44
2021/04/13 12:33:51;;;;;;;22.90;21.10;;;24.00;92.70;;;;;;5983462;23;20447;-43
2021/04/13 12:36:50;;;;;;;22.37;20.70;;;23.90;92.70;;;;;;5988135;23;20688;-43
2021/04/13 12:39:55;;;;;;;23.90;21.77;;;23.90;92.70;;;;;;5988723;23;21116;-43
2021/04/13 12:42:47;;;;;;;24.20;22.07;;;23.90;92.70;;;;;;6049964;23;20456;-43
2021/04/13 12:45:29;;;;;;;21.40;19.83;;;23.90;92.70;;;;;;6040310;23;20501;-42
2021/04/13 12:48:00;;;;;;;21.73;20.07;;;23.90;92.70;;;;;;6049664;23;20458;-43
2021/04/13 12:50:33;;;;;;;22.90;21.30;;;23.90;92.70;;;;;;6049924;23;20855;-43
2021/04/13 12:53:00;;;;;;;21.93;20.43;;;23.90;92.80;;;;;;6045000;23;20465;-43
2021/04/13 12:55:29;;;;;;;23.00;21.00;;;23.90;92.70;;;;;;6047307;23;20572;-43
2021/04/13 12:57:58;;;;;;;19.80;18.60;;;23.90;92.70;;;;;;6021076;23;20468;-43
2021/04/13 13:00:33;;;;;;;22.40;20.80;;;23.90;92.80;;;;;;6047564;23;20560;-43
2021/04/13 13:03:14;;;;;;;22.97;21.17;;;23.90;92.80;;;;;;6049644;23;20447;-42
2021/04/13 13:05:40;;;;;;;22.87;20.83;;;23.90;92.90;;;;;;6048468;23;20598;-43
2021/04/13 13:08:11;;;;;;;21.67;20.17;;;23.90;92.80;;;;;;6051829;23;20446;-43
2021/04/13 13:10:39;;;;;;;21.40;19.80;;;23.90;92.90;;;;;;6047809;23;20452;-43
2021/04/13 13:13:09;;;;;;;21.00;19.60;;;23.90;92.80;;;;;;6051340;23;20748;-43
2021/04/13 13:15:40;;;;;;;20.03;18.63;;;23.90;92.80;;;;;;6050973;23;21347;-43
2021/04/13 13:18:25;;;;;;;20.63;19.20;;;23.90;92.90;;;;;;6050072;23;21102;-43
2021/04/13 13:21:01;;;;;;;20.53;19.03;;;23.90;92.90;;;;;;6050721;23;20603;-43